Time;durP1;ratioP1;P1;durP2;ratioP2;P2;SDS_P1;SDS_P2;PMS_P1;PMS_P2;Temp;Humidity;BMP_temperature;BMP_pressure;BME280_temperature;BME280_humidity;BME280_pressure;Samples;Min_cycle;Max_cycle;Signal;HPM_P1;HPM_P2
2024/04/12 00:01:45;;;;;;;8.97;6.10;;;10.40;99.90;;;10.57;71.36;100466.75;5374267;26;20468;-67
2024/04/12 00:04:16;;;;;;;8.73;6.00;;;10.40;99.90;;;10.53;71.16;100467.81;5373776;26;20568;-70
2024/04/12 00:06:49;;;;;;;9.10;5.80;;;10.40;99.90;;;10.54;71.36;100469.53;5372062;26;20605;-69
2024/04/12 00:09:17;;;;;;;7.63;5.60;;;10.30;99.90;;;10.55;71.09;100472.06;5374018;26;20548;-67
2024/04/12 00:11:54;;;;;;;9.00;5.57;;;10.30;99.90;;;10.52;71.10;100472.22;5381501;26;20534;-70
2024/04/12 00:14:21;;;;;;;7.80;5.70;;;10.30;99.90;;;10.52;71.24;100468.75;5398574;26;20548;-70
2024/04/12 00:16:52;;;;;;;9.77;5.97;;;10.40;99.90;;;10.49;71.46;100472.38;5371519;26;20964;-70
2024/04/12 00:19:19;;;;;;;9.60;6.40;;;11.80;99.90;;;10.44;71.74;100477.03;5374071;26;20479;-70
2024/04/12 00:21:47;;;;;;;7.83;5.47;;;10.30;99.90;;;10.42;71.45;100477.09;5364384;26;20914;-66
2024/04/12 00:24:15;;;;;;;9.90;6.10;;;10.20;99.90;;;10.36;71.53;100471.31;5353880;26;20492;-69
2024/04/12 00:26:48;;;;;;;7.20;5.47;;;10.30;99.90;;;10.33;72.15;100476.75;5368466;26;20520;-69
2024/04/12 00:29:31;;;;;;;9.83;5.93;;;10.20;99.90;;;10.24;72.09;100466.69;5374793;26;20598;-67
2024/04/12 00:32:05;;;;;;;8.63;6.10;;;10.20;99.90;;;10.20;72.08;100469.47;5368579;26;20890;-67
2024/04/12 00:34:38;;;;;;;10.23;6.23;;;10.10;99.90;;;10.22;72.28;100458.91;5383300;26;20483;-69
2024/04/12 00:37:08;;;;;;;8.77;6.07;;;10.10;99.90;;;10.24;72.40;100464.06;5379473;26;20472;-69
2024/04/12 00:39:35;;;;;;;9.87;6.10;;;10.10;99.90;;;10.20;72.33;100458.94;5374403;26;20587;-67
2024/04/12 00:42:07;;;;;;;8.93;5.60;;;10.10;99.90;;;10.20;72.26;100456.31;5378010;26;20488;-69
2024/04/12 00:44:35;;;;;;;7.90;5.30;;;10.00;99.90;;;10.20;72.20;100458.94;5378182;26;20554;-70
2024/04/12 00:47:04;;;;;;;9.23;5.93;;;10.00;99.90;;;10.16;72.09;100460.06;5344681;26;20589;-69
2024/04/12 00:49:30;;;;;;;9.17;6.10;;;10.00;99.90;;;10.11;72.67;100459.44;5362285;26;21051;-69
2024/04/12 00:52:02;;;;;;;8.93;5.53;;;10.00;99.90;;;10.09;72.59;100456.03;5376917;26;20474;-69
2024/04/12 00:54:29;;;;;;;7.90;5.70;;;9.90;99.90;;;10.11;72.56;100456.78;5378789;26;20535;-68
2024/04/12 00:56:58;;;;;;;10.63;5.83;;;9.90;99.90;;;10.09;72.42;100445.53;5336562;26;20574;-67
2024/04/12 00:59:24;;;;;;;8.67;6.07;;;9.90;99.90;;;10.13;72.48;100457.56;5367089;26;20561;-65
2024/04/12 01:01:52;;;;;;;8.43;5.70;;;9.90;99.90;;;10.14;72.47;100448.75;5372513;26;20954;-68
2024/04/12 01:04:20;;;;;;;7.23;5.57;;;9.90;99.90;;;10.13;72.35;100449.69;5349054;26;20251;-68
2024/04/12 01:06:47;;;;;;;10.70;5.93;;;9.90;99.90;;;10.11;72.57;100446.28;5364646;26;20579;-70
2024/04/12 01:09:13;;;;;;;8.30;6.30;;;9.90;99.90;;;10.12;72.07;100449.75;5366314;26;20568;-66
2024/04/12 01:11:39;;;;;;;9.60;5.57;;;9.90;99.90;;;10.12;72.17;100445.38;5381377;26;20533;-69
2024/04/12 01:14:06;;;;;;;7.00;5.50;;;9.90;99.90;;;10.11;72.45;100448.06;5380586;26;20244;-64
2024/04/12 01:16:32;;;;;;;7.13;4.97;;;9.90;99.90;;;10.06;72.59;100444.84;5372907;26;20546;-68
2024/04/12 01:18:58;;;;;;;8.70;5.00;;;9.90;99.90;;;10.04;72.54;100455.41;5379425;26;20604;-69
2024/04/12 01:21:24;;;;;;;9.23;5.40;;;9.90;99.90;;;10.04;72.41;100457.19;5380024;26;20254;-69
2024/04/12 01:23:53;;;;;;;6.67;4.90;;;9.80;99.90;;;10.05;72.51;100446.59;5376365;26;20463;-69
2024/04/12 01:26:23;;;;;;;11.63;6.07;;;9.80;99.90;;;9.99;72.39;100441.66;5372078;26;20470;-68
2024/04/12 01:28:54;;;;;;;8.33;5.40;;;9.80;99.90;;;9.92;72.27;100442.91;5339598;26;20579;-69
2024/04/12 01:31:20;;;;;;;8.50;5.70;;;9.80;99.90;;;9.85;72.34;100441.53;5376653;26;20538;-69
2024/04/12 01:33:50;;;;;;;10.37;5.47;;;9.70;99.90;;;9.76;72.91;100440.22;5366635;26;20474;-69
2024/04/12 01:36:22;;;;;;;8.20;5.70;;;9.70;99.90;;;9.70;72.95;100443.97;5372639;26;20243;-69
2024/04/12 01:38:57;;;;;;;9.43;5.53;;;9.60;99.90;;;9.70;73.25;100433.50;5369439;26;20541;-70
2024/04/12 01:41:31;;;;;;;9.20;5.30;;;9.60;99.90;;;9.71;73.58;100437.84;5382089;26;20467;-68
2024/04/12 01:44:06;;;;;;;8.10;5.20;;;9.60;99.90;;;9.74;73.61;100439.44;5370114;26;20511;-71
2024/04/12 01:46:37;;;;;;;8.93;5.50;;;9.60;99.90;;;9.77;73.66;100446.31;5372339;26;20534;-69
2024/04/12 01:49:10;;;;;;;7.00;5.10;;;9.60;99.90;;;9.76;73.77;100440.22;5374759;26;20473;-69
2024/04/12 01:51:37;;;;;;;10.70;6.00;;;9.60;99.90;;;9.75;73.83;100436.75;5373825;26;20526;-67
2024/04/12 01:54:17;;;;;;;10.23;6.13;;;9.60;99.90;;;9.70;74.18;100432.66;5375403;26;20464;-69
2024/04/12 01:56:47;;;;;;;6.93;5.30;;;9.60;99.90;;;9.69;74.02;100436.19;5377675;26;20533;-69
2024/04/12 01:59:23;;;;;;;7.83;5.60;;;9.60;99.90;;;9.68;73.52;100430.13;5382144;26;20540;-65
2024/04/12 02:01:49;;;;;;;10.27;5.97;;;9.50;99.90;;;9.66;73.75;100431.94;5361163;26;20480;-69
2024/04/12 02:04:19;;;;;;;8.63;6.13;;;9.50;99.90;;;9.66;73.70;100437.19;5353747;26;20479;-68
2024/04/12 02:06:45;;;;;;;8.80;5.73;;;9.50;99.90;;;9.63;73.44;100437.34;5350440;26;20472;-69
2024/04/12 02:09:14;;;;;;;9.70;5.60;;;9.50;99.90;;;9.58;73.83;100438.50;5371239;26;20553;-70
2024/04/12 02:11:46;;;;;;;9.13;5.80;;;9.50;99.90;;;9.51;73.89;100438.78;5378900;26;20479;-69
2024/04/12 02:14:13;;;;;;;9.90;5.63;;;9.40;99.90;;;9.49;74.04;100437.19;5350409;26;20481;-67
2024/04/12 02:16:41;;;;;;;8.47;5.50;;;9.40;99.90;;;9.50;74.45;100436.25;5369346;26;20537;-68
2024/04/12 02:19:12;;;;;;;10.10;5.93;;;9.40;99.90;;;9.49;74.45;100438.03;5411714;26;20531;-67
2024/04/12 02:21:39;;;;;;;8.47;5.83;;;9.40;99.90;;;9.50;74.20;100446.75;5373387;26;20485;-62
2024/04/12 02:24:11;;;;;;;9.90;5.80;;;9.30;99.90;;;9.45;74.61;100451.38;5378586;26;20625;-70
2024/04/12 02:26:40;;;;;;;7.80;5.87;;;9.40;99.90;;;9.49;74.70;100440.66;5375505;26;20467;-68
2024/04/12 02:29:06;;;;;;;11.87;5.20;;;9.30;99.90;;;9.51;74.63;100457.16;5346458;26;20501;-69
2024/04/12 02:31:35;;;;;;;9.20;5.87;;;9.30;99.90;;;9.52;74.68;100445.75;5376083;26;20482;-68
2024/04/12 02:34:02;;;;;;;7.70;5.50;;;9.30;99.90;;;9.50;74.50;100452.84;5377163;26;20243;-69
2024/04/12 02:36:31;;;;;;;9.97;5.43;;;9.30;99.90;;;9.48;74.68;100452.06;5379464;26;20473;-68
2024/04/12 02:38:58;;;;;;;9.33;5.97;;;9.30;99.90;;;9.50;74.44;100449.38;5349009;26;20762;-68
2024/04/12 02:41:28;;;;;;;8.30;5.50;;;9.30;99.90;;;9.45;74.38;100454.00;5375130;26;20492;-67
2024/04/12 02:43:56;;;;;;;10.23;5.30;;;9.30;99.90;;;9.33;74.77;100454.56;5350309;26;20508;-60
2024/04/12 02:46:25;;;;;;;8.97;5.30;;;9.30;99.90;;;9.05;76.18;100456.75;5371851;26;20479;-68
2024/04/12 02:48:51;;;;;;;8.60;5.30;;;9.30;99.90;;;8.98;76.54;100450.06;5385118;26;20606;-70
2024/04/12 02:51:18;;;;;;;7.67;5.60;;;9.20;99.90;;;9.00;76.32;100453.47;5379487;26;20572;-69
2024/04/12 02:53:44;;;;;;;9.27;5.37;;;9.10;99.90;;;9.05;76.78;100450.66;5405834;26;20470;-68
2024/04/12 02:56:14;;;;;;;13.27;5.97;;;9.10;99.90;;;9.09;76.49;100452.22;5374429;26;20528;-68
2024/04/12 02:58:42;;;;;;;7.80;5.40;;;9.10;99.90;;;9.13;76.44;100453.75;5410734;26;20521;-69
2024/04/12 03:01:19;;;;;;;10.57;5.53;;;9.10;99.90;;;9.19;76.42;100456.09;5373712;26;20535;-69
2024/04/12 03:03:50;;;;;;;7.37;5.13;;;9.10;99.90;;;9.25;76.16;100457.56;5378566;26;20567;-69
2024/04/12 03:06:22;;;;;;;9.23;5.40;;;9.10;99.90;;;9.26;76.36;100465.34;5374729;26;20469;-69
2024/04/12 03:08:49;;;;;;;7.30;5.60;;;9.10;99.90;;;9.27;76.06;100459.22;5372339;26;20459;-68
2024/04/12 03:11:21;;;;;;;7.70;5.10;;;9.10;99.90;;;9.32;76.27;100455.50;5361460;26;20483;-68
2024/04/12 03:13:59;;;;;;;9.00;5.60;;;9.10;99.90;;;9.34;75.85;100454.53;5380467;26;20523;-67
2024/04/12 03:16:25;;;;;;;7.87;5.63;;;9.10;99.90;;;9.35;75.78;100463.22;5386754;26;20472;-69
2024/04/12 03:18:52;;;;;;;8.07;5.40;;;9.10;99.90;;;9.34;75.75;100453.66;5384229;26;20483;-69
2024/04/12 03:21:24;;;;;;;9.13;6.00;;;9.20;99.90;;;9.31;75.75;100452.03;5380386;26;20476;-68
2024/04/12 03:23:50;;;;;;;8.50;5.50;;;9.10;99.90;;;9.31;75.48;100445.94;5421946;26;20473;-68
2024/04/12 03:26:24;;;;;;;8.73;5.67;;;9.10;99.90;;;9.28;75.13;100439.91;5381445;26;20537;-68
2024/04/12 03:28:54;;;;;;;7.33;5.53;;;9.10;99.90;;;9.21;75.04;100438.53;5372195;26;20540;-70
2024/04/12 03:31:25;;;;;;;8.60;5.70;;;9.10;99.90;;;9.20;75.00;100433.34;5377433;26;20476;-68
2024/04/12 03:33:54;;;;;;;8.20;5.37;;;9.10;99.90;;;9.16;75.52;100440.50;5380797;26;20552;-70
2024/04/12 03:41:56;;;;;;;6.43;4.57;;;9.00;99.90;;;9.17;75.67;100452.69;5379351;26;20472;-68
2024/04/12 03:44:25;;;;;;;8.00;5.40;;;9.00;99.90;;;9.15;75.32;100448.47;5379967;26;20481;-67
2024/04/12 03:46:52;;;;;;;9.27;5.57;;;9.00;99.90;;;9.12;75.38;100459.09;5370596;26;20573;-69
2024/04/12 03:49:20;;;;;;;6.20;5.10;;;9.00;99.90;;;9.10;75.41;100450.44;5380137;26;20536;-68
2024/04/12 03:51:54;;;;;;;7.47;5.40;;;9.00;99.90;;;9.01;75.56;100443.84;5377890;26;20477;-70
2024/04/12 03:54:21;;;;;;;7.80;5.50;;;9.00;99.90;;;9.01;75.77;100449.09;5346430;26;20524;-67
2024/04/12 03:56:56;;;;;;;8.13;5.30;;;8.90;99.90;;;9.00;75.63;100448.25;5336021;26;20476;-70
2024/04/12 03:59:29;;;;;;;7.03;5.60;;;8.90;99.90;;;8.99;75.66;100449.16;5364874;26;20459;-70
2024/04/12 04:01:56;;;;;;;9.40;5.53;;;8.90;99.90;;;8.99;75.76;100457.03;5364341;26;20518;-67
2024/04/12 04:04:37;;;;;;;7.97;5.60;;;8.80;99.90;;;9.01;75.47;100454.31;5369874;26;20508;-70
2024/04/12 04:07:06;;;;;;;10.30;6.70;;;8.80;99.90;;;8.93;75.45;100446.00;5371366;26;20471;-69
2024/04/12 04:09:32;;;;;;;10.20;6.13;;;8.80;99.90;;;8.89;75.44;100447.03;5368447;26;20525;-71
2024/04/12 04:11:59;;;;;;;10.67;6.47;;;8.80;99.90;;;8.86;75.81;100439.31;5354391;26;20569;-66
2024/04/12 04:14:26;;;;;;;11.87;6.27;;;8.80;99.90;;;8.84;75.75;100431.53;5343822;26;20565;-68
2024/04/12 04:17:02;;;;;;;9.80;6.30;;;8.80;99.90;;;8.71;76.77;100431.25;5368660;26;20478;-69
2024/04/12 04:19:34;;;;;;;9.43;5.70;;;8.80;99.90;;;8.64;77.57;100439.44;5373925;26;20778;-69
2024/04/12 04:22:05;;;;;;;8.10;5.63;;;8.70;99.90;;;8.65;77.35;100442.00;5348226;26;21209;-68
2024/04/12 04:24:33;;;;;;;8.93;5.97;;;8.70;99.90;;;8.65;76.89;100436.78;5342109;26;20872;-70
2024/04/12 04:27:02;;;;;;;8.27;5.97;;;8.60;99.90;;;8.66;76.95;100443.69;5370689;26;20487;-69
2024/04/12 04:29:29;;;;;;;7.30;5.83;;;8.60;99.90;;;8.66;76.79;100441.06;5377878;26;20459;-68
2024/04/12 04:31:56;;;;;;;8.17;5.43;;;8.60;99.90;;;8.65;77.17;100444.63;5371033;26;20602;-68
2024/04/12 04:34:25;;;;;;;9.17;5.83;;;8.60;99.90;;;8.65;76.88;100442.00;5380431;26;20532;-69
2024/04/12 04:36:55;;;;;;;8.10;5.50;;;8.60;99.90;;;8.63;76.82;100446.47;5369477;26;20478;-69
2024/04/12 04:39:23;;;;;;;9.27;5.70;;;8.60;99.90;;;8.66;76.31;100448.94;5372364;26;20547;-69
2024/04/12 04:41:51;;;;;;;11.80;6.30;;;8.50;99.90;;;8.58;76.40;100445.84;5363316;26;20468;-69
2024/04/12 04:44:21;;;;;;;8.23;5.57;;;8.50;99.90;;;8.51;76.46;100441.75;5356862;26;20474;-68
2024/04/12 04:46:49;;;;;;;13.30;6.13;;;8.50;99.90;;;8.49;76.72;100439.22;5360007;26;20478;-64
2024/04/12 04:49:23;;;;;;;8.30;6.20;;;8.40;99.90;;;8.53;76.68;100451.25;5361419;26;20463;-67
2024/04/12 04:51:49;;;;;;;9.83;5.60;;;8.40;99.90;;;8.56;76.66;100450.28;5392239;26;20467;-67
2024/04/12 04:54:21;;;;;;;11.77;5.90;;;8.40;99.90;;;8.50;77.27;100438.31;5350431;26;20523;-69
2024/04/12 04:56:48;;;;;;;9.43;5.90;;;8.40;99.90;;;8.48;77.37;100441.91;5330985;26;21573;-65
2024/04/12 04:59:17;;;;;;;10.10;5.07;;;8.40;99.90;;;8.50;77.38;100446.16;5360095;26;21119;-65
2024/04/12 05:01:50;;;;;;;8.00;5.53;;;8.40;99.90;;;8.53;76.98;100450.41;5356928;26;20585;-67
2024/04/12 05:04:20;;;;;;;9.67;6.37;;;8.40;99.90;;;8.55;76.96;100448.59;5358349;26;20473;-65
2024/04/12 05:06:58;;;;;;;8.77;5.83;;;8.40;99.90;;;8.53;77.02;100453.03;5346871;26;20544;-62
2024/04/12 05:09:27;;;;;;;8.53;5.70;;;8.40;99.90;;;8.57;76.79;100457.22;5355543;26;21368;-66
2024/04/12 05:11:54;;;;;;;10.23;6.10;;;8.40;99.90;;;8.66;77.01;100459.41;5324173;26;20571;-66
2024/04/12 05:17:07;;;;;;;9.87;5.40;;;8.50;99.90;;;8.88;76.72;100474.16;5357051;26;20544;-66
2024/04/12 05:19:40;;;;;;;7.80;5.10;;;8.50;99.90;;;9.00;76.71;100468.38;5359269;26;20523;-65
2024/04/12 05:22:19;;;;;;;10.33;5.83;;;8.60;99.90;;;9.03;75.79;100465.59;5333136;26;20600;-64
2024/04/12 05:24:46;;;;;;;7.57;5.00;;;8.70;99.90;;;9.13;76.23;100456.38;5393912;26;20541;-65
2024/04/12 05:27:12;;;;;;;10.13;5.63;;;8.80;99.90;;;9.56;75.80;100466.59;5367419;26;20602;-66
2024/04/12 05:29:41;;;;;;;13.10;5.70;;;9.00;99.90;;;10.36;73.68;100463.44;5373513;26;20464;-66
2024/04/12 05:32:07;;;;;;;11.57;5.60;;;9.30;99.90;;;11.21;70.46;100457.97;5405890;26;20521;-64
2024/04/12 05:34:34;;;;;;;9.03;5.37;;;9.70;99.90;;;12.31;68.19;100453.38;5367819;26;20483;-67
2024/04/12 05:37:03;;;;;;;8.40;5.50;;;10.20;99.90;;;13.27;64.27;100449.16;5371144;26;21000;-67
2024/04/12 05:39:36;;;;;;;13.57;5.57;;;10.70;99.90;;;14.36;59.85;100445.38;5375055;26;20551;-67
2024/04/12 05:42:06;;;;;;;10.57;4.97;;;11.40;99.90;;;15.17;55.81;100449.41;5391693;26;20587;-67
2024/04/12 05:44:34;;;;;;;13.57;5.50;;;12.00;99.90;;;15.72;53.21;100445.38;5377770;26;20474;-65
2024/04/12 05:47:06;;;;;;;12.70;5.40;;;12.60;99.90;;;16.02;51.97;100459.09;5373091;26;20593;-65
2024/04/12 05:49:33;;;;;;;8.50;5.57;;;13.10;99.90;;;16.17;51.37;100449.94;5407484;26;20571;-67
2024/04/12 05:52:03;;;;;;;8.47;4.87;;;13.60;99.90;;;16.27;50.43;100448.31;5374601;26;20519;-67
2024/04/12 05:54:44;;;;;;;9.37;5.30;;;14.00;99.90;;;16.27;49.74;100458.03;5378999;26;20478;-66
2024/04/12 05:57:11;;;;;;;10.93;5.10;;;14.30;99.90;;;16.07;50.24;100465.72;5372296;26;20459;-67
2024/04/12 05:59:41;;;;;;;9.57;5.70;;;14.50;99.90;;;15.92;50.47;100464.22;5370279;26;20483;-66
2024/04/12 06:02:14;;;;;;;9.50;6.20;;;14.70;99.90;;;15.74;50.27;100462.00;5373419;26;20599;-68
2024/04/12 06:04:46;;;;;;;10.70;5.87;;;14.80;99.90;;;15.60;50.65;100469.25;5361157;26;20542;-67
2024/04/12 06:07:13;;;;;;;14.13;6.40;;;14.80;99.90;;;15.43;51.38;100487.22;5371575;26;20470;-67
2024/04/12 06:09:47;;;;;;;11.97;5.37;;;14.80;99.90;;;15.45;51.78;100497.72;5404539;26;20510;-64
2024/04/12 06:12:16;;;;;;;11.60;5.60;;;14.80;99.90;;;15.48;51.52;100500.16;5370165;26;20521;-67
2024/04/12 06:14:42;;;;;;;14.80;6.80;;;14.90;99.90;;;15.55;51.12;100482.84;5352547;26;20487;-68
2024/04/12 06:17:11;;;;;;;17.27;6.43;;;15.00;99.90;;;15.38;51.41;100491.16;5370312;26;20715;-66
2024/04/12 06:19:38;;;;;;;16.83;6.17;;;15.00;99.90;;;15.32;51.50;100487.19;5361651;26;20556;-67
2024/04/12 06:22:13;;;;;;;13.23;6.10;;;15.00;99.90;;;14.91;52.47;100490.13;5373352;26;20470;-68
2024/04/12 06:24:42;;;;;;;13.37;5.87;;;15.00;99.90;;;14.60;53.98;100481.72;5402066;26;20549;-67
2024/04/12 06:27:09;;;;;;;12.73;6.30;;;14.80;99.90;;;14.39;53.76;100478.72;5371416;26;20523;-66
2024/04/12 06:29:35;;;;;;;10.23;5.97;;;14.70;99.90;;;14.86;54.42;100484.31;5370946;26;20469;-65
2024/04/12 06:32:01;;;;;;;15.00;6.10;;;16.30;99.90;;;15.22;53.40;100486.13;5374202;26;20496;-62
2024/04/12 06:34:37;;;;;;;11.27;5.90;;;14.80;99.90;;;15.49;51.90;100480.66;5368631;26;20476;-66
2024/04/12 06:37:06;;;;;;;21.57;6.30;;;15.00;99.90;;;15.72;51.67;100479.81;5369916;26;20243;-67
2024/04/12 06:39:32;;;;;;;10.20;6.47;;;15.10;99.90;;;15.96;50.29;100477.16;5356720;26;20477;-67
2024/04/12 06:42:03;;;;;;;11.60;6.50;;;15.30;99.90;;;16.20;50.24;100473.56;5360546;26;21026;-67
2024/04/12 06:44:31;;;;;;;12.93;6.53;;;15.50;99.90;;;16.42;49.50;100465.69;5369775;26;20487;-68
2024/04/12 06:46:58;;;;;;;11.10;6.70;;;15.70;99.90;;;16.54;48.99;100466.53;5372305;26;20486;-65
2024/04/12 06:49:34;;;;;;;8.47;6.00;;;15.90;99.90;;;16.75;48.92;100465.81;5375407;26;20608;-63
2024/04/12 06:52:12;;;;;;;9.93;6.57;;;16.10;99.90;;;17.07;48.48;100472.09;5373387;26;20474;-68
2024/04/12 06:54:42;;;;;;;12.70;6.20;;;16.30;99.90;;;17.44;48.14;100474.44;5374770;26;20554;-66
2024/04/12 06:57:17;;;;;;;9.20;6.40;;;16.50;99.90;;;17.48;47.21;100472.38;5373175;26;20526;-66
2024/04/12 06:59:47;;;;;;;8.40;6.33;;;16.70;99.90;;;17.74;46.94;100470.22;5375824;26;22182;-67
2024/04/12 07:02:14;;;;;;;10.37;6.17;;;16.90;99.90;;;17.74;46.71;100479.03;5362423;26;20463;-65
2024/04/12 07:04:40;;;;;;;12.10;6.53;;;17.00;99.90;;;17.92;47.11;100474.03;5344877;26;21030;-67
2024/04/12 07:07:07;;;;;;;9.13;6.80;;;17.20;99.90;;;18.29;46.82;100477.09;5361182;26;20538;-66
2024/04/12 07:09:34;;;;;;;13.00;7.00;;;17.40;99.90;;;18.57;45.87;100477.41;5343162;26;20470;-68
2024/04/12 07:12:05;;;;;;;8.60;6.73;;;17.70;99.90;;;18.63;45.42;100474.19;5349041;26;20467;-67
2024/04/12 07:14:37;;;;;;;11.67;7.23;;;17.90;99.90;;;18.86;44.76;100476.72;5366947;26;21000;-67
2024/04/12 07:17:20;;;;;;;10.03;7.20;;;18.00;99.90;;;19.02;44.94;100477.03;5368308;26;20486;-63
2024/04/12 07:19:49;;;;;;;11.47;6.20;;;18.20;99.90;;;19.28;44.53;100480.03;5369841;26;20598;-67
2024/04/12 07:22:20;;;;;;;11.20;6.83;;;18.50;99.90;;;19.32;44.41;100472.63;5341117;26;20480;-68
2024/04/12 07:24:52;;;;;;;10.40;6.47;;;18.60;99.90;;;19.24;44.46;100467.97;5336724;26;20485;-62
2024/04/12 07:27:27;;;;;;;10.43;6.37;;;18.70;99.90;;;18.06;46.73;100472.88;5375138;26;20592;-67
2024/04/12 07:29:54;;;;;;;7.70;5.30;;;18.50;99.90;;;18.61;46.19;100470.81;5399335;26;20478;-63
2024/04/12 07:32:23;;;;;;;9.20;5.93;;;19.50;99.90;;;19.08;45.80;100460.50;5400898;26;20474;-67
2024/04/12 07:34:50;;;;;;;7.37;5.50;;;18.60;99.90;;;19.50;45.02;100462.13;5365043;26;20471;-65
2024/04/12 07:37:27;;;;;;;11.83;7.00;;;18.80;99.90;;;19.87;44.42;100467.63;5369334;26;20515;-67
2024/04/12 07:40:15;;;;;;;13.60;6.07;;;19.00;99.90;;;20.36;43.41;100479.06;5369882;26;20518;-67
2024/04/12 07:42:48;;;;;;;8.93;6.60;;;19.30;99.90;;;20.65;42.96;100475.50;5367714;26;20463;-66
2024/04/12 07:45:23;;;;;;;8.50;6.17;;;19.60;99.90;;;20.97;42.63;100467.09;5368469;26;20478;-66
2024/04/12 07:47:53;;;;;;;12.93;6.53;;;19.80;99.90;;;21.20;41.32;100465.69;5371332;26;20481;-67
2024/04/12 07:50:31;;;;;;;10.50;6.37;;;20.10;99.90;;;21.46;40.85;100454.28;5371213;26;20474;-64
2024/04/12 07:56:14;;;;;;;8.20;5.17;;;20.50;99.90;;;21.90;40.61;100451.66;5360922;26;20534;-67
2024/04/12 07:58:50;;;;;;;9.43;5.50;;;20.80;99.90;;;21.78;40.55;100463.59;5396213;26;20532;-67
2024/04/12 08:01:25;;;;;;;9.50;5.43;;;20.90;99.90;;;21.91;40.75;100466.72;5351169;26;20481;-67
2024/04/12 08:03:56;;;;;;;11.80;5.47;;;21.00;99.90;;;22.03;41.18;100460.13;5326084;26;20872;-67
2024/04/12 08:06:55;;;;;;;9.43;4.80;;;21.00;99.90;;;22.32;40.78;100457.19;5333880;26;20486;-66
2024/04/12 08:09:34;;;;;;;11.33;5.40;;;21.20;99.90;;;22.51;40.64;100460.63;5358648;26;20460;-68
2024/04/12 08:12:14;;;;;;;9.13;5.30;;;21.40;99.90;;;22.66;40.36;100454.53;5355015;26;20473;-67
2024/04/12 08:14:51;;;;;;;10.30;4.80;;;21.60;99.90;;;22.88;39.79;100450.44;5375143;26;20584;-69
2024/04/12 08:17:24;;;;;;;10.53;5.07;;;21.70;99.90;;;23.08;40.16;100453.75;5389268;26;21022;-68
2024/04/12 08:20:12;;;;;;;8.40;5.23;;;21.90;99.90;;;23.35;39.91;100446.41;5373733;26;20470;-69
2024/04/12 08:22:38;;;;;;;11.83;5.70;;;22.10;99.90;;;23.35;39.78;100444.56;5345482;26;21338;-67
2024/04/12 08:25:06;;;;;;;12.53;4.93;;;22.30;99.90;;;23.60;39.37;100442.75;5373923;26;20482;-67
2024/04/12 08:27:34;;;;;;;11.47;5.03;;;22.40;99.90;;;23.48;40.25;100448.63;5370747;26;20260;-69
2024/04/12 08:30:13;;;;;;;10.43;4.43;;;22.60;99.90;;;22.70;41.49;100455.06;5368738;26;20564;-68
2024/04/12 08:32:48;;;;;;;7.97;4.20;;;23.90;99.90;;;22.89;41.89;100462.03;5364797;26;20656;-69
2024/04/12 08:35:19;;;;;;;5.80;3.87;;;22.20;99.90;;;23.27;41.60;100457.16;5337431;26;20610;-64
2024/04/12 08:37:47;;;;;;;8.63;3.87;;;22.30;99.90;;;23.58;41.22;100454.66;5364685;26;20547;-69
2024/04/12 08:40:13;;;;;;;6.70;4.43;;;22.40;99.90;;;23.34;40.91;100447.44;5372602;26;20542;-66
2024/04/12 08:42:39;;;;;;;7.30;3.60;;;22.60;99.90;;;23.19;42.04;100446.38;5370702;26;20458;-68
2024/04/12 08:45:13;;;;;;;4.53;2.53;;;22.60;99.90;;;23.09;43.48;100451.91;5340921;26;20623;-69
2024/04/12 08:47:51;;;;;;;5.10;2.80;;;22.40;99.90;;;23.18;43.39;100447.41;5362478;26;20466;-68
2024/04/12 08:50:25;;;;;;;4.13;2.50;;;22.40;99.90;;;23.40;43.07;100441.41;5393728;26;20563;-60
2024/04/12 08:52:53;;;;;;;3.83;2.60;;;22.30;99.90;;;23.48;43.26;100438.72;5342818;26;20522;-68
2024/04/12 08:55:23;;;;;;;7.30;2.60;;;22.40;99.90;;;23.68;43.47;100441.13;5363630;26;20482;-68
2024/04/12 08:58:00;;;;;;;6.03;2.93;;;22.50;99.90;;;23.66;42.89;100449.31;5367561;26;20470;-67
2024/04/12 09:00:31;;;;;;;4.97;2.90;;;22.60;99.90;;;22.86;44.25;100454.31;5363556;26;20482;-68
2024/04/12 09:03:02;;;;;;;6.60;2.90;;;22.50;99.90;;;22.61;45.14;100456.03;5359088;26;20534;-66
2024/04/12 09:05:39;;;;;;;5.00;3.00;;;22.30;99.90;;;22.54;45.27;100454.97;5338974;26;21169;-69
2024/04/12 09:08:05;;;;;;;7.40;2.80;;;22.20;99.90;;;22.26;47.34;100447.13;5365036;26;20521;-67
2024/04/12 09:10:35;;;;;;;4.80;2.40;;;22.00;99.90;;;22.14;47.01;100443.00;5370983;26;20480;-68
2024/04/12 09:13:08;;;;;;;3.53;2.40;;;21.80;99.90;;;22.23;46.73;100443.94;5368025;26;20468;-67
2024/04/12 09:15:38;;;;;;;4.50;2.33;;;21.80;99.90;;;22.35;47.37;100446.19;5348708;26;20557;-66
2024/04/12 09:18:13;;;;;;;3.30;2.30;;;21.70;99.90;;;22.30;46.97;100443.13;5368755;26;20588;-63
2024/04/12 09:20:40;;;;;;;5.40;2.57;;;21.80;99.90;;;22.39;47.07;100446.69;5372791;26;20536;-69
2024/04/12 09:23:14;;;;;;;4.50;1.97;;;21.70;99.90;;;22.40;46.89;100451.03;5326608;26;20536;-66
2024/04/12 09:26:21;;;;;;;3.40;2.17;;;21.70;99.90;;;22.15;47.52;100440.13;5369187;26;21237;-67
2024/04/12 09:28:46;;;;;;;4.80;2.60;;;21.50;99.90;;;21.67;48.51;100443.28;5371584;26;20482;-68
2024/04/12 09:34:22;;;;;;;3.40;2.33;;;22.40;99.90;;;22.00;49.30;100431.00;5370509;26;20566;-68
2024/04/12 09:36:56;;;;;;;3.70;2.30;;;21.30;99.90;;;22.82;47.42;100426.13;5367596;26;20482;-60
2024/04/12 09:39:23;;;;;;;3.63;2.20;;;21.50;99.90;;;23.39;44.82;100428.16;5373011;26;20471;-67
2024/04/12 09:42:03;;;;;;;2.97;2.10;;;21.80;99.90;;;23.79;44.10;100413.94;5371822;26;20470;-68
2024/04/12 09:44:48;;;;;;;2.83;1.87;;;22.60;99.90;;;24.00;44.18;100429.56;5373058;26;20522;-66
2024/04/12 10:37:44;;;;;;;3.80;2.27;;;22.30;99.90;;;23.22;44.92;100419.25;5279644;27;20530;-67
2024/04/12 10:40:11;;;;;;;2.60;1.80;;;22.40;99.90;;;23.10;45.12;100430.25;5266243;27;21361;-69
2024/04/12 10:42:38;;;;;;;3.03;1.90;;;22.30;99.90;;;23.00;45.24;100426.06;5270789;27;20251;-68
2024/04/12 10:45:08;;;;;;;5.17;2.17;;;22.40;99.90;;;22.80;45.51;100428.16;5258527;27;20573;-68
2024/04/12 10:47:37;;;;;;;3.03;2.10;;;22.20;99.90;;;22.83;45.62;100425.97;5243626;27;20494;-66
2024/04/12 10:50:04;;;;;;;3.07;1.97;;;22.10;99.90;;;22.94;45.50;100426.72;5305103;26;20475;-67
2024/04/12 10:52:31;;;;;;;3.90;2.20;;;22.10;99.90;;;23.18;45.33;100420.59;5388995;26;20514;-68
2024/04/12 10:54:58;;;;;;;3.50;2.17;;;22.20;99.90;;;23.01;45.79;100428.56;5350490;26;20761;-66
2024/04/12 10:57:29;;;;;;;4.30;2.40;;;22.30;99.90;;;22.82;45.92;100424.28;5384532;26;20473;-68
2024/04/12 11:00:01;;;;;;;4.43;2.57;;;22.20;99.90;;;22.60;46.57;100423.03;5372576;26;20466;-62
2024/04/12 11:02:28;;;;;;;3.40;2.40;;;22.00;99.90;;;22.46;47.05;100423.63;5383514;26;21075;-67
2024/04/12 11:07:39;;;;;;;3.53;2.60;;;21.80;99.90;;;22.20;48.34;100418.28;5377593;26;21037;-67
2024/04/12 11:10:05;;;;;;;4.20;2.80;;;21.70;99.90;;;21.95;48.17;100422.59;5378690;26;20458;-65
2024/04/12 11:12:45;;;;;;;4.23;2.40;;;21.60;99.90;;;21.86;48.69;100421.69;5369429;26;20234;-68
2024/04/12 11:32:12;;;;;;;5.83;2.63;;;20.70;99.90;;;21.83;48.76;100399.78;5370212;26;20546;-67
2024/04/12 11:34:42;;;;;;;4.37;2.60;;;20.80;99.90;;;22.13;47.98;100388.63;5375336;26;20581;-60
2024/04/12 11:37:13;;;;;;;4.00;2.47;;;21.90;99.90;;;22.48;47.59;100386.81;5370651;26;20490;-68
2024/04/12 11:39:41;;;;;;;6.93;2.67;;;21.30;99.90;;;22.70;47.13;100389.91;5375324;26;20470;-68
2024/04/12 11:42:18;;;;;;;3.57;2.40;;;21.50;99.90;;;22.63;46.65;100393.22;5367398;26;20542;-68
2024/04/12 11:44:47;;;;;;;3.00;2.30;;;21.70;99.90;;;22.65;46.68;100404.63;5374907;26;20574;-68
2024/04/12 11:47:16;;;;;;;5.30;2.80;;;21.80;99.90;;;22.73;46.99;100395.81;5366926;26;23228;-67
2024/04/12 11:49:45;;;;;;;5.10;2.57;;;21.80;99.90;;;22.78;46.67;100397.97;5377707;26;20598;-67
2024/04/12 11:52:15;;;;;;;5.67;2.97;;;21.90;99.90;;;22.62;46.19;100396.06;5337715;26;21033;-66
2024/04/12 11:55:59;;;;;;;5.13;3.13;;;21.90;99.90;;;22.55;46.94;100395.88;5368679;26;20584;-68